Time;durP1;ratioP1;P1;durP2;ratioP2;P2;SDS_P1;SDS_P2;PMS_P1;PMS_P2;Temp;Humidity;BMP_temperature;BMP_pressure;BME280_temperature;BME280_humidity;BME280_pressure;Samples;Min_cycle;Max_cycle;Signal;HPM_P1;HPM_P2
2022/03/31 00:02:09;;;;;;;274.33;46.27;;;;;;;-145.69;100.00;70851.25;5052607;28;20222;-76
2022/03/31 00:04:37;;;;;;;295.40;46.50;;;;;;;-145.69;100.00;70853.22;5062683;28;20250;-76
2022/03/31 00:07:04;;;;;;;477.50;52.07;;;;;;;-145.69;100.00;70855.22;5072720;28;20649;-76
2022/03/31 00:09:31;;;;;;;363.97;47.17;;;;;;;-145.69;100.00;70847.25;5072748;28;20205;-76
2022/03/31 00:11:59;;;;;;;166.07;37.07;;;;;;;-145.69;100.00;70839.31;5072805;28;20198;-76
2022/03/31 00:14:27;;;;;;;143.27;35.47;;;;;;;-145.69;100.00;70839.31;5071616;28;20213;-76
2022/03/31 00:16:54;;;;;;;220.43;41.63;;;;;;;-145.69;100.00;70839.31;5072602;28;20245;-76
2022/03/31 00:19:21;;;;;;;751.93;57.57;;;;;;;-145.69;100.00;70837.31;5072725;28;20581;-76
2022/03/31 00:21:48;;;;;;;659.63;58.37;;;;;;;-145.69;100.00;70843.28;5072924;28;20237;-76
2022/03/31 00:24:15;;;;;;;327.87;47.20;;;;;;;-145.69;100.00;70841.28;5072748;28;20199;-76
2022/03/31 00:26:41;;;;;;;400.60;50.80;;;;;;;-145.69;100.00;70843.28;5072569;28;20293;-76
2022/03/31 00:29:08;;;;;;;532.93;54.23;;;;;;;-145.69;100.00;70841.28;5072501;28;20210;-76
2022/03/31 00:31:36;;;;;;;455.60;53.97;;;;;;;-145.69;100.00;70839.31;5072763;28;20203;-76
2022/03/31 00:34:03;;;;;;;286.33;47.03;;;;;;;-145.69;100.00;70837.31;5072317;28;20202;-76
2022/03/31 00:36:29;;;;;;;252.27;43.67;;;;;;;-145.69;100.00;70835.31;5072495;28;20249;-76
2022/03/31 00:41:41;;;;;;;399.23;49.17;;;;;;;-145.69;100.00;70829.34;5072576;28;20205;-76
2022/03/31 00:44:07;;;;;;;705.60;63.33;;;;;;;-145.69;100.00;70831.34;5072575;28;20203;-76
2022/03/31 00:46:35;;;;;;;355.83;51.77;;;;;;;-145.69;100.00;70833.34;5072382;28;20565;-76
2022/03/31 00:49:02;;;;;;;416.77;52.50;;;;;;;-145.69;100.00;70825.38;5073713;28;20210;-76
2022/03/31 00:51:29;;;;;;;348.47;49.37;;;;;;;-145.69;100.00;70825.38;5076300;28;20194;-76
2022/03/31 00:53:56;;;;;;;249.70;46.17;;;;;;;-145.69;100.00;70821.41;5076235;28;20207;-76
2022/03/31 00:56:24;;;;;;;270.40;47.67;;;;;;;-145.69;100.00;70817.41;5076299;28;20230;-76
2022/03/31 00:58:51;;;;;;;246.03;45.93;;;;;;;-145.69;100.00;70817.41;5076223;28;20238;-76
2022/03/31 01:01:19;;;;;;;260.47;45.00;;;;;;;-145.69;100.00;70809.47;5076224;28;20199;-76
2022/03/31 01:03:47;;;;;;;348.63;51.47;;;;;;;-145.69;100.00;70809.47;5075704;28;20199;-76
2022/03/31 01:06:13;;;;;;;290.50;47.30;;;;;;;-145.69;100.00;70807.47;5075778;28;20274;-76
2022/03/31 01:08:40;;;;;;;340.10;52.20;;;;;;;-145.69;100.00;70809.47;5075516;28;20245;-76
2022/03/31 01:11:07;;;;;;;301.33;50.57;;;;;;;-145.69;100.00;70811.44;5076062;28;20211;-76
2022/03/31 01:13:34;;;;;;;280.37;47.47;;;;;;;-145.69;100.00;70805.47;5075916;28;20199;-76
2022/03/31 01:16:01;;;;;;;326.20;49.47;;;;;;;-145.69;100.00;70801.50;5074609;28;20238;-76
2022/03/31 01:18:27;;;;;;;449.43;54.60;;;;;;;-145.69;100.00;70805.47;5074957;28;20246;-76
2022/03/31 01:20:55;;;;;;;344.43;50.13;;;;;;;-145.69;100.00;70797.53;5075619;28;20198;-76
2022/03/31 01:23:23;;;;;;;374.80;51.00;;;;;;;-145.69;100.00;70793.53;5075902;28;20202;-76
2022/03/31 01:25:50;;;;;;;350.93;51.27;;;;;;;-145.69;100.00;70797.53;5075698;28;20209;-76
2022/03/31 01:28:16;;;;;;;289.13;48.43;;;;;;;-145.69;100.00;70795.53;5071502;28;20195;-76
2022/03/31 01:30:43;;;;;;;337.07;50.13;;;;;;;-145.69;100.00;70793.53;5074985;28;20264;-76
2022/03/31 01:33:11;;;;;;;335.03;50.60;;;;;;;-145.69;100.00;70789.56;5075351;28;20582;-75
2022/03/31 01:35:37;;;;;;;472.57;55.97;;;;;;;-145.69;100.00;70779.63;5074945;28;20222;-76
2022/03/31 01:38:07;;;;;;;326.93;51.30;;;;;;;-145.69;100.00;70779.63;5075570;28;20203;-76
2022/03/31 01:40:35;;;;;;;305.93;50.30;;;;;;;-145.69;100.00;70761.72;5075247;28;20321;-76
2022/03/31 01:43:02;;;;;;;327.60;50.43;;;;;;;-145.69;100.00;70757.72;5075388;28;20211;-76
2022/03/31 01:45:28;;;;;;;278.23;46.53;;;;;;;-145.69;100.00;70749.78;5075244;28;20210;-76
2022/03/31 01:47:55;;;;;;;303.93;47.63;;;;;;;-145.69;100.00;70753.75;5062598;28;20203;-76
2022/03/31 01:50:21;;;;;;;231.23;42.07;;;;;;;-145.69;100.00;70747.78;5055357;28;20199;-76
2022/03/31 01:52:48;;;;;;;209.60;42.27;;;;;;;-145.69;100.00;70737.84;5054513;28;20206;-76
2022/03/31 01:55:15;;;;;;;235.53;44.30;;;;;;;-145.69;100.00;70729.88;5055128;28;20249;-76
2022/03/31 01:57:42;;;;;;;218.43;43.17;;;;;;;-145.69;100.00;70729.88;5073461;28;20206;-76
2022/03/31 02:00:10;;;;;;;206.30;38.73;;;;;;;-145.69;100.00;70739.81;5075012;28;20222;-76
2022/03/31 02:02:36;;;;;;;375.43;48.60;;;;;;;-145.69;100.00;70749.78;5074433;28;20206;-76
2022/03/31 02:05:03;;;;;;;246.30;45.97;;;;;;;-145.69;100.00;70749.78;5074758;28;20202;-76
2022/03/31 02:07:30;;;;;;;411.57;46.63;;;;;;;-145.69;100.00;70747.78;5074981;28;20199;-76
2022/03/31 02:09:56;;;;;;;222.43;42.07;;;;;;;-145.69;100.00;70737.84;5074940;28;20199;-76
2022/03/31 02:12:22;;;;;;;275.67;41.43;;;;;;;-145.69;100.00;70735.84;5074829;28;20194;-76
2022/03/31 02:14:50;;;;;;;259.03;43.57;;;;;;;-145.69;100.00;70745.78;5074624;28;20202;-76
2022/03/31 02:17:17;;;;;;;338.27;49.20;;;;;;;-145.69;100.00;70753.75;5074383;28;20238;-76
2022/03/31 02:19:43;;;;;;;282.33;43.17;;;;;;;-145.69;100.00;70745.78;5074740;28;20199;-76
2022/03/31 02:22:10;;;;;;;436.77;48.97;;;;;;;-145.69;100.00;70733.84;5073129;28;20722;-76
2022/03/31 02:24:36;;;;;;;423.17;51.17;;;;;;;-145.69;100.00;70743.81;5074615;28;20229;-76
2022/03/31 02:27:03;;;;;;;220.13;42.83;;;;;;;-145.69;100.00;70741.81;5074101;28;20197;-76
2022/03/31 02:29:30;;;;;;;238.50;44.40;;;;;;;-145.69;100.00;70735.84;5074390;28;20207;-76
2022/03/31 02:31:58;;;;;;;279.67;43.97;;;;;;;-145.69;100.00;70737.84;5074258;28;20198;-76
2022/03/31 02:34:24;;;;;;;270.27;45.40;;;;;;;-145.69;100.00;70745.78;5074326;28;20423;-76
2022/03/31 02:36:51;;;;;;;257.73;42.83;;;;;;;-145.69;100.00;70745.78;5074248;28;20222;-76
2022/03/31 02:39:17;;;;;;;252.33;43.97;;;;;;;-145.69;100.00;70741.81;5074199;28;20206;-76
2022/03/31 02:41:44;;;;;;;289.87;47.30;;;;;;;-145.69;100.00;70741.81;5074010;28;20846;-76
2022/03/31 02:44:10;;;;;;;191.33;39.60;;;;;;;-145.69;100.00;70735.84;5074097;28;20203;-76
2022/03/31 02:46:38;;;;;;;240.83;44.70;;;;;;;-145.69;100.00;70721.91;5074042;28;20206;-76
2022/03/31 02:49:05;;;;;;;185.87;38.97;;;;;;;-145.69;100.00;70715.94;5074097;28;20257;-76
2022/03/31 02:51:32;;;;;;;215.57;42.07;;;;;;;-145.69;100.00;70711.97;5073969;28;20600;-76
2022/03/31 02:56:42;;;;;;;249.23;44.07;;;;;;;-145.69;100.00;70725.91;5073627;28;20308;-76
2022/03/31 02:59:09;;;;;;;476.33;50.90;;;;;;;-145.69;100.00;70731.88;5073941;28;20256;-76
2022/03/31 03:01:35;;;;;;;274.10;47.23;;;;;;;-145.69;100.00;70729.88;5073746;28;20557;-76
2022/03/31 03:04:02;;;;;;;270.40;50.20;;;;;;;-145.69;100.00;70741.81;5073661;28;20565;-76
2022/03/31 03:06:30;;;;;;;305.00;45.03;;;;;;;-145.69;100.00;70737.84;5073650;28;20272;-76
2022/03/31 03:08:56;;;;;;;253.67;44.27;;;;;;;-145.69;100.00;70733.84;5073589;28;20198;-76
2022/03/31 03:11:23;;;;;;;268.87;44.60;;;;;;;-145.69;100.00;70729.88;5073084;28;20206;-76
2022/03/31 03:13:50;;;;;;;285.10;46.10;;;;;;;-145.69;100.00;70727.88;5073719;28;20227;-76
2022/03/31 03:16:17;;;;;;;231.13;41.23;;;;;;;-145.69;100.00;70723.91;5073385;28;20226;-76
2022/03/31 03:18:43;;;;;;;258.03;44.17;;;;;;;-145.69;100.00;70709.97;5073280;28;20288;-77
2022/03/31 03:21:10;;;;;;;230.00;41.17;;;;;;;-145.69;100.00;70706.00;5073489;28;20256;-76
2022/03/31 03:23:39;;;;;;;221.00;41.23;;;;;;;-145.69;100.00;70696.06;5072662;28;20744;-76
2022/03/31 03:26:07;;;;;;;218.20;40.87;;;;;;;-145.69;100.00;70698.03;5071531;28;20199;-76
2022/03/31 03:28:35;;;;;;;218.00;41.93;;;;;;;-145.69;100.00;70692.06;5073400;28;20224;-76
2022/03/31 03:31:03;;;;;;;176.50;36.83;;;;;;;-145.69;100.00;70690.09;5073271;28;20607;-76
2022/03/31 03:33:29;;;;;;;178.17;35.60;;;;;;;-145.69;100.00;70686.09;5073220;28;20289;-76
2022/03/31 03:35:56;;;;;;;175.67;35.83;;;;;;;-145.69;100.00;70678.16;5073131;28;20304;-76
2022/03/31 03:38:22;;;;;;;185.33;35.33;;;;;;;-145.69;100.00;70674.16;5072984;28;20199;-76
2022/03/31 03:40:50;;;;;;;195.77;39.63;;;;;;;-145.69;100.00;70682.13;5073429;28;20252;-76
2022/03/31 03:43:16;;;;;;;339.25;57.22;;;;;;;-145.69;100.00;70682.13;5071988;28;20434;-76
2022/03/31 03:45:43;;;;;;;171.40;39.20;;;;;;;-145.69;100.00;70680.13;5063284;28;20208;-77
2022/03/31 03:48:11;;;;;;;140.53;34.17;;;;;;;-145.69;100.00;70686.09;5053076;28;20245;-76
2022/03/31 03:50:38;;;;;;;150.20;35.90;;;;;;;-145.69;100.00;70682.13;5052929;28;20658;-76
2022/03/31 03:53:04;;;;;;;194.87;39.40;;;;;;;-145.69;100.00;70694.06;5052504;28;20663;-76
2022/03/31 03:55:31;;;;;;;184.43;37.30;;;;;;;-145.69;100.00;70696.06;5054364;28;20199;-76
2022/03/31 03:58:00;;;;;;;179.10;37.90;;;;;;;-145.69;100.00;70696.06;5072982;28;20321;-76
2022/03/31 04:00:26;;;;;;;174.10;36.47;;;;;;;-145.69;100.00;70692.06;5073011;28;20249;-76
2022/03/31 04:02:53;;;;;;;155.03;35.20;;;;;;;-145.69;100.00;70690.09;5072956;28;20289;-76
2022/03/31 04:05:20;;;;;;;165.50;35.50;;;;;;;-145.69;100.00;70684.13;5072883;28;20203;-77
2022/03/31 04:07:47;;;;;;;163.73;36.60;;;;;;;-145.69;100.00;70674.16;5072775;28;20621;-76
2022/03/31 04:10:13;;;;;;;150.77;35.03;;;;;;;-145.69;100.00;70678.16;5073056;28;20202;-76
2022/03/31 04:12:40;;;;;;;135.80;33.37;;;;;;;-145.69;100.00;70678.16;5072968;28;20267;-76
2022/03/31 04:15:10;;;;;;;151.20;35.27;;;;;;;-145.69;100.00;70672.19;5072822;28;20203;-76
2022/03/31 04:17:37;;;;;;;139.63;32.67;;;;;;;-145.69;100.00;70666.22;5072566;28;20274;-76
2022/03/31 04:20:04;;;;;;;151.73;34.53;;;;;;;-145.69;100.00;70672.19;5072594;28;20214;-76
2022/03/31 04:22:33;;;;;;;141.97;32.83;;;;;;;-145.69;100.00;70670.19;5073006;28;20230;-76
2022/03/31 04:25:00;;;;;;;133.50;33.10;;;;;;;-145.69;100.00;70670.19;5075446;28;20715;-76
2022/03/31 04:27:26;;;;;;;129.10;30.47;;;;;;;-145.69;100.00;70670.19;5075414;28;20221;-76
2022/03/31 04:29:53;;;;;;;156.57;40.42;;;;;;;-145.69;100.00;70664.22;5075699;28;20491;-76
2022/03/31 04:32:20;;;;;;;140.53;35.13;;;;;;;-145.69;100.00;70666.22;5076383;28;20191;-76
2022/03/31 04:34:47;;;;;;;129.53;31.13;;;;;;;-145.69;100.00;70662.22;5076433;28;20202;-76
2022/03/31 04:37:14;;;;;;;115.27;31.33;;;;;;;-145.69;100.00;70664.22;5076588;28;20226;-76
2022/03/31 04:39:40;;;;;;;120.83;31.97;;;;;;;-145.69;100.00;70662.22;5076609;28;20199;-76
2022/03/31 04:42:09;;;;;;;118.50;31.33;;;;;;;-145.69;100.00;70666.22;5076579;28;20206;-76
2022/03/31 04:44:37;;;;;;;109.37;29.07;;;;;;;-145.69;100.00;70666.22;5076430;28;20199;-75
2022/03/31 04:47:04;;;;;;;135.03;33.77;;;;;;;-145.69;100.00;70690.09;5076400;28;20256;-76
2022/03/31 04:49:33;;;;;;;162.00;34.73;;;;;;;-145.69;100.00;70696.06;5076526;28;20206;-76
2022/03/31 04:51:59;;;;;;;154.17;34.80;;;;;;;-145.69;100.00;70698.03;5076444;28;20204;-76
2022/03/31 04:54:25;;;;;;;150.87;34.67;;;;;;;-145.69;100.00;70698.03;5076299;28;20252;-76
2022/03/31 04:56:52;;;;;;;152.83;34.07;;;;;;;-145.69;100.00;70698.03;5072835;28;20226;-76
2022/03/31 04:59:19;;;;;;;203.70;40.60;;;;;;;-145.69;100.00;70702.03;5075837;28;20199;-76
2022/03/31 05:01:45;;;;;;;218.53;40.73;;;;;;;-145.69;100.00;70702.03;5075876;28;20807;-76
2022/03/31 05:04:12;;;;;;;188.93;38.10;;;;;;;-145.69;100.00;70698.03;5076246;28;20225;-76
2022/03/31 05:06:40;;;;;;;201.77;37.67;;;;;;;-145.69;100.00;70698.03;5076316;28;20256;-76
2022/03/31 05:09:07;;;;;;;203.57;40.93;;;;;;;-145.69;100.00;70702.03;5076317;28;20564;-76
2022/03/31 05:11:34;;;;;;;194.70;38.87;;;;;;;-145.69;100.00;70702.03;5077369;28;20203;-76
2022/03/31 05:14:00;;;;;;;160.53;33.17;;;;;;;-145.69;100.00;70692.06;5075782;28;20199;-76
2022/03/31 05:16:27;;;;;;;169.73;28.67;;;;;;;-145.69;100.00;70688.09;5075794;28;20554;-76
2022/03/31 05:18:53;;;;;;;183.90;29.33;;;;;;;-145.69;100.00;70694.06;5075581;28;20241;-76
2022/03/31 05:21:20;;;;;;;104.20;26.20;;;;;;;-145.69;100.00;70686.09;5075681;28;20649;-76
2022/03/31 05:23:48;;;;;;;89.80;23.47;;;;;;;-145.69;100.00;70688.09;5075725;28;20669;-76
2022/03/31 05:26:15;;;;;;;68.37;22.43;;;;;;;-145.69;100.00;70690.09;5075212;28;20233;-76
2022/03/31 05:28:41;;;;;;;75.47;22.17;;;;;;;-145.69;100.00;70696.06;5075598;28;20249;-76
2022/03/31 05:31:08;;;;;;;84.60;23.53;;;;;;;-145.69;100.00;70688.09;5075343;28;20202;-76
2022/03/31 05:33:34;;;;;;;124.57;26.47;;;;;;;-145.69;100.00;70684.13;5075678;28;20327;-76
2022/03/31 05:36:01;;;;;;;69.90;23.10;;;;;;;-145.69;100.00;70682.13;5075076;28;20237;-76
2022/03/31 05:38:28;;;;;;;68.73;22.67;;;;;;;-145.69;100.00;70678.16;5075284;28;20227;-76
2022/03/31 05:40:55;;;;;;;115.83;25.30;;;;;;;-145.69;100.00;70678.16;5075018;28;20202;-76
2022/03/31 05:43:22;;;;;;;99.43;23.13;;;;;;;-145.69;100.00;70670.19;5075338;28;20195;-76
2022/03/31 05:45:49;;;;;;;74.30;22.77;;;;;;;-145.69;100.00;70660.25;5075692;28;20228;-76
2022/03/31 05:48:15;;;;;;;88.03;23.53;;;;;;;-145.69;100.00;70658.25;5074980;28;20198;-76
2022/03/31 05:50:42;;;;;;;91.70;24.77;;;;;;;-145.69;100.00;70654.28;5075264;28;20199;-76
2022/03/31 05:53:08;;;;;;;79.33;23.67;;;;;;;-145.69;100.00;70634.38;5075166;28;20245;-76
2022/03/31 05:55:36;;;;;;;75.50;23.50;;;;;;;-145.69;100.00;70624.44;5071006;28;20203;-76
2022/03/31 05:58:03;;;;;;;74.53;23.20;;;;;;;-145.69;100.00;70618.47;5074924;28;20233;-76
2022/03/31 06:00:32;;;;;;;85.60;25.10;;;;;;;-145.69;100.00;70618.47;5075147;28;20202;-76
2022/03/31 06:02:59;;;;;;;97.80;26.90;;;;;;;-145.69;100.00;70602.56;5075192;28;20203;-76
2022/03/31 06:05:26;;;;;;;119.47;41.03;;;;;;;-145.69;100.00;70600.56;5074819;28;20553;-76
2022/03/31 06:07:53;;;;;;;87.40;30.20;;;;;;;-145.69;100.00;70594.59;5074970;28;20206;-76
2022/03/31 06:10:20;;;;;;;96.30;26.00;;;;;;;-145.69;100.00;70598.56;5074841;28;20202;-76
2022/03/31 06:12:47;;;;;;;96.67;25.23;;;;;;;-145.69;100.00;70598.56;5074425;28;20203;-76
2022/03/31 06:15:15;;;;;;;102.63;26.67;;;;;;;-145.69;100.00;70614.47;5074803;28;20214;-75
2022/03/31 06:17:44;;;;;;;103.87;27.87;;;;;;;-145.69;100.00;70598.56;5074322;28;20230;-75
2022/03/31 06:20:12;;;;;;;102.83;25.97;;;;;;;-145.69;100.00;70582.66;5074677;28;20210;-75
2022/03/31 06:22:39;;;;;;;88.33;25.87;;;;;;;-145.69;100.00;70582.66;5074448;28;20194;-75
2022/03/31 06:25:10;;;;;;;91.47;24.90;;;;;;;-145.69;100.00;70584.66;5074306;28;20202;-75
2022/03/31 06:27:37;;;;;;;83.10;24.03;;;;;;;-145.69;100.00;70566.75;5074770;28;20289;-75
2022/03/31 06:30:04;;;;;;;80.23;22.47;;;;;;;-145.69;100.00;70568.72;5074451;28;20195;-75
2022/03/31 06:32:32;;;;;;;84.17;24.63;;;;;;;-145.69;100.00;70580.66;5074481;28;20195;-75
2022/03/31 06:34:59;;;;;;;76.57;23.83;;;;;;;-145.69;100.00;70550.81;5074348;28;20199;-75
2022/03/31 06:37:26;;;;;;;73.07;24.57;;;;;;;-145.69;100.00;70530.94;5074275;28;20663;-75
2022/03/31 06:39:52;;;;;;;71.23;22.30;;;;;;;-145.69;100.00;70526.94;5074040;28;20689;-75
2022/03/31 06:42:19;;;;;;;74.23;23.13;;;;;;;-145.69;100.00;70534.91;5075161;28;20221;-75
2022/03/31 06:44:45;;;;;;;62.23;22.10;;;;;;;-145.69;100.00;70552.81;5074292;28;20609;-75
2022/03/31 06:47:12;;;;;;;61.80;21.53;;;;;;;-145.69;100.00;70532.91;5072998;28;20654;-75
2022/03/31 06:49:39;;;;;;;61.50;21.33;;;;;;;-145.69;100.00;70519.00;5073812;28;20199;-75
2022/03/31 06:52:06;;;;;;;57.43;22.03;;;;;;;-145.69;100.00;70489.16;5073883;28;20252;-75
2022/03/31 06:54:33;;;;;;;57.60;21.77;;;;;;;-145.69;100.00;70475.22;5073995;28;20214;-75
2022/03/31 06:56:59;;;;;;;53.33;20.63;;;;;;;-145.69;100.00;70443.41;5073990;28;20238;-75
2022/03/31 06:59:29;;;;;;;55.67;20.70;;;;;;;-145.69;100.00;70439.41;5073755;28;20203;-75
2022/03/31 07:01:55;;;;;;;52.87;19.07;;;;;;;-145.69;100.00;70407.59;5073595;28;20286;-75
2022/03/31 07:04:22;;;;;;;48.73;18.93;;;;;;;-145.69;100.00;70399.63;5073656;28;20202;-75
2022/03/31 07:06:50;;;;;;;46.23;17.53;;;;;;;-145.69;100.00;70379.72;5073505;28;20198;-75
2022/03/31 07:09:16;;;;;;;42.83;18.07;;;;;;;-145.69;100.00;70353.88;5073767;28;20211;-75
2022/03/31 07:11:43;;;;;;;37.10;16.93;;;;;;;-145.69;100.00;70328.00;5073764;28;20276;-75
2022/03/31 07:14:09;;;;;;;39.73;16.70;;;;;;;-145.69;100.00;70347.91;5073569;28;20565;-74
2022/03/31 07:16:36;;;;;;;31.73;15.03;;;;;;;-145.69;100.00;70351.88;5073331;28;20616;-74
2022/03/31 07:19:03;;;;;;;33.90;14.50;;;;;;;-145.69;100.00;70326.03;5073395;28;20585;-74
2022/03/31 07:21:30;;;;;;;29.80;12.30;;;;;;;-145.69;100.00;70332.00;5073510;28;20203;-77
2022/03/31 07:23:57;;;;;;;25.13;12.03;;;;;;;-145.69;100.00;70363.81;5073566;28;20313;-76
2022/03/31 07:26:24;;;;;;;30.10;12.63;;;;;;;-145.69;100.00;70405.59;5073422;28;20194;-76
2022/03/31 07:28:53;;;;;;;30.80;13.73;;;;;;;-145.69;100.00;70459.31;5073355;28;20207;-76
2022/03/31 07:31:19;;;;;;;36.03;13.97;;;;;;;-145.69;100.00;70469.25;5072946;28;20244;-76
2022/03/31 07:33:46;;;;;;;31.03;14.17;;;;;;;-145.69;100.00;70489.16;5073155;28;20665;-76
2022/03/31 07:36:12;;;;;;;31.37;13.53;;;;;;;-145.69;100.00;70499.09;5073107;28;20608;-76
2022/03/31 07:38:39;;;;;;;33.27;15.03;;;;;;;-145.69;100.00;70487.16;5073055;28;20272;-76
2022/03/31 07:41:07;;;;;;;31.33;14.23;;;;;;;-145.69;100.00;70495.13;5073351;28;20203;-76
2022/03/31 07:43:34;;;;;;;31.53;14.50;;;;;;;-145.69;100.00;70493.13;5072983;28;20715;-77
2022/03/31 07:46:00;;;;;;;31.23;14.80;;;;;;;-145.69;100.00;70491.13;5073322;28;20202;-77
2022/03/31 07:48:26;;;;;;;30.67;13.23;;;;;;;-145.69;100.00;70483.19;5072965;28;20203;-77
2022/03/31 07:50:55;;;;;;;31.17;14.27;;;;;;;-145.69;100.00;70499.09;5073359;28;20206;-77
2022/03/31 07:53:22;;;;;;;30.77;14.43;;;;;;;-145.69;100.00;70491.13;5071148;28;20211;-77
2022/03/31 07:55:49;;;;;;;30.37;13.20;;;;;;;-145.69;100.00;70503.06;5054083;28;20278;-76
2022/03/31 07:58:17;;;;;;;29.93;12.77;;;;;;;-145.69;100.00;70507.06;5052876;28;20227;-76
2022/03/31 08:00:43;;;;;;;27.20;12.47;;;;;;;-145.69;100.00;70491.13;5058130;28;20229;-76
2022/03/31 08:03:10;;;;;;;23.93;11.40;;;;;;;-145.69;100.00;70471.25;5072967;28;20565;-76
2022/03/31 08:05:38;;;;;;;27.47;12.27;;;;;;;-145.69;100.00;70461.31;5072756;28;20207;-77
2022/03/31 08:08:05;;;;;;;27.00;12.27;;;;;;;-145.69;100.00;70427.47;5073073;28;20248;-75
2022/03/31 08:10:32;;;;;;;26.10;11.27;;;;;;;-145.69;100.00;70373.78;5072788;28;20278;-77
2022/03/31 08:12:58;;;;;;;27.90;12.43;;;;;;;-145.69;100.00;70369.78;5072816;28;20202;-77
2022/03/31 08:15:26;;;;;;;25.60;13.07;;;;;;;-145.69;100.00;70359.84;5072802;28;20207;-77
2022/03/31 08:17:53;;;;;;;29.03;12.80;;;;;;;-145.69;100.00;70335.97;5072657;28;20230;-77
2022/03/31 08:20:20;;;;;;;26.90;12.50;;;;;;;-145.69;100.00;70330.00;5073100;28;20221;-76
2022/03/31 08:22:48;;;;;;;29.60;14.80;;;;;;;-145.69;100.00;70318.06;5071766;28;20448;-76
2022/03/31 08:25:18;;;;;;;27.17;12.80;;;;;;;-145.69;100.00;70300.16;5072770;28;20206;-76
2022/03/31 08:27:45;;;;;;;28.90;13.20;;;;;;;-145.69;100.00;70296.19;5072602;28;20230;-76
2022/03/31 08:30:16;;;;;;;28.83;13.33;;;;;;;-145.69;100.00;70292.19;5072014;28;20203;-76
2022/03/31 08:32:46;;;;;;;24.60;11.70;;;;;;;-145.69;100.00;70324.03;5072569;28;20556;-76
2022/03/31 08:35:13;;;;;;;24.90;11.10;;;;;;;-145.69;100.00;70294.19;5072785;28;20194;-76
2022/03/31 08:37:41;;;;;;;22.53;10.23;;;;;;;-145.69;100.00;70220.59;5068281;28;20226;-76
2022/03/31 08:40:11;;;;;;;20.50;9.50;;;;;;;-145.69;100.00;70178.81;5072568;28;20198;-77
2022/03/31 08:42:38;;;;;;;24.73;9.13;;;;;;;-145.69;100.00;70164.88;5071731;28;20203;-76
2022/03/31 08:45:06;;;;;;;17.80;8.97;;;;;;;-145.69;100.00;70105.22;5072707;28;20205;-76
2022/03/31 08:47:33;;;;;;;19.07;8.63;;;;;;;-145.69;100.00;70049.50;5072579;28;20205;-76
2022/03/31 08:50:01;;;;;;;18.20;9.07;;;;;;;-145.69;100.00;70063.44;5072021;28;20232;-76
2022/03/31 08:52:28;;;;;;;17.20;8.77;;;;;;;-145.69;99.00;70041.56;5071915;28;20557;-76
2022/03/31 08:54:54;;;;;;;17.40;8.40;;;;;;;-145.69;89.72;69991.84;5072307;28;20531;-76
2022/03/31 08:57:21;;;;;;;18.83;9.10;;;;;;;-145.69;90.70;69950.06;5072204;28;20608;-76
2022/03/31 08:59:47;;;;;;;16.57;8.23;;;;;;;-145.69;92.42;69997.78;5072235;28;20669;-76
2022/03/31 09:02:23;;;;;;;15.57;8.37;;;;;;;-145.69;95.04;70029.63;5071597;28;20727;-77
2022/03/31 09:05:01;;;;;;;19.80;8.57;;;;;;;-145.69;98.41;70087.31;5072338;28;20198;-76
2022/03/31 09:07:28;;;;;;;20.83;10.75;;;;;;;-145.69;100.00;70180.81;5070574;28;20848;-77
2022/03/31 09:09:54;;;;;;;19.23;9.80;;;;;;;-145.69;100.00;70121.13;5072868;28;20256;-76
2022/03/31 09:12:22;;;;;;;20.33;10.10;;;;;;;-145.69;100.00;70216.63;5074666;28;20203;-76
2022/03/31 09:14:49;;;;;;;30.47;10.37;;;;;;;-145.69;100.00;70254.41;5073875;28;20198;-76
2022/03/31 09:17:17;;;;;;;21.23;9.63;;;;;;;-145.69;100.00;70258.38;5073691;28;20230;-76
2022/03/31 09:19:43;;;;;;;26.13;10.87;;;;;;;-145.69;100.00;70260.38;5074164;28;20231;-76
2022/03/31 09:22:12;;;;;;;30.53;12.60;;;;;;;-145.69;100.00;70280.28;5074743;28;20302;-76
2022/03/31 09:24:39;;;;;;;30.70;12.93;;;;;;;-145.69;100.00;70258.38;5075137;28;20230;-76
2022/03/31 09:27:06;;;;;;;31.00;13.23;;;;;;;-145.69;100.00;70310.09;5074802;28;20306;-76
2022/03/31 09:29:34;;;;;;;31.60;13.47;;;;;;;-145.69;100.00;70316.06;5075501;28;20213;-76
2022/03/31 09:32:08;;;;;;;33.37;13.17;;;;;;;-145.69;100.00;70316.06;5075347;28;20281;-76
2022/03/31 09:34:42;;;;;;;29.17;11.97;;;;;;;-145.69;100.00;70292.19;5075351;28;20195;-76
2022/03/31 09:37:08;;;;;;;29.20;12.67;;;;;;;-145.69;100.00;70248.44;5075292;28;20195;-76
2022/03/31 09:39:37;;;;;;;27.43;12.33;;;;;;;-145.69;100.00;70206.66;5075181;28;20233;-76
2022/03/31 09:42:11;;;;;;;28.47;12.10;;;;;;;-145.69;100.00;70194.72;5075357;28;20429;-76
2022/03/31 09:44:38;;;;;;;33.33;12.87;;;;;;;-145.69;100.00;70224.56;5075391;28;20212;-76
2022/03/31 09:47:04;;;;;;;27.30;12.47;;;;;;;-145.69;100.00;70204.69;5075102;28;20199;-77
2022/03/31 09:49:31;;;;;;;29.70;12.10;;;;;;;-145.69;100.00;70230.53;5075032;28;20604;-76
2022/03/31 09:51:59;;;;;;;35.47;13.20;;;;;;;-145.69;100.00;70192.75;5075171;28;20202;-76
2022/03/31 09:54:27;;;;;;;25.93;12.77;;;;;;;-145.69;100.00;70206.66;5061041;28;20258;-76
2022/03/31 09:56:56;;;;;;;32.43;12.07;;;;;;;-145.69;100.00;70196.72;5055003;28;20203;-75
2022/03/31 09:59:29;;;;;;;31.20;12.20;;;;;;;-145.69;100.00;70156.94;5055400;28;20231;-75
2022/03/31 10:01:55;;;;;;;35.00;13.23;;;;;;;-145.69;100.00;70137.03;5054912;28;20211;-75
2022/03/31 10:04:23;;;;;;;30.60;12.97;;;;;;;-145.69;99.16;70117.16;5054887;28;20195;-75
2022/03/31 10:06:50;;;;;;;33.40;13.20;;;;;;;-145.69;100.00;70113.16;5054846;28;20235;-75
2022/03/31 10:09:18;;;;;;;39.23;13.87;;;;;;;-145.69;100.00;70097.25;5067927;28;20195;-75
2022/03/31 10:11:47;;;;;;;30.70;12.37;;;;;;;-145.69;97.39;70117.16;5074637;28;20249;-75
2022/03/31 10:14:23;;;;;;;64.53;26.60;;;;;;;-145.69;95.56;70049.50;5074599;28;20229;-76
2022/03/31 10:16:54;;;;;;;83.80;33.87;;;;;;;-145.69;95.87;70017.69;5074712;28;20199;-75
2022/03/31 10:19:32;;;;;;;61.30;25.67;;;;;;;-145.69;91.91;70041.56;5074734;28;20235;-75
2022/03/31 10:22:00;;;;;;;57.80;24.00;;;;;;;-145.69;87.90;70019.69;5073436;28;20198;-75
2022/03/31 10:24:42;;;;;;;35.30;14.53;;;;;;;-145.69;90.68;70061.44;5074506;28;20673;-76
2022/03/31 10:27:09;;;;;;;73.37;29.07;;;;;;;-145.69;94.16;70051.50;5074354;28;20245;-75
2022/03/31 10:29:42;;;;;;;77.57;31.67;;;;;;;-145.69;96.41;70027.63;5074519;28;20207;-76
2022/03/31 10:32:20;;;;;;;55.63;23.07;;;;;;;-145.69;92.49;70069.41;5074343;28;20211;-76
2022/03/31 10:34:48;;;;;;;44.87;15.27;;;;;;;-145.69;94.28;70049.50;5074432;28;20208;-75
2022/03/31 10:37:17;;;;;;;36.10;11.97;;;;;;;-145.69;92.99;70043.56;5074213;28;20217;-75
2022/03/31 10:39:55;;;;;;;34.60;13.20;;;;;;;-145.69;89.61;70015.69;5074344;28;20380;-76
2022/03/31 10:42:22;;;;;;;34.00;12.23;;;;;;;-145.69;91.71;69993.81;5074086;28;20543;-75
2022/03/31 10:45:01;;;;;;;27.23;9.27;;;;;;;-145.69;82.22;69954.03;5074294;28;20199;-76
2022/03/31 10:47:33;;;;;;;29.83;9.80;;;;;;;-145.69;77.09;69918.22;5074031;28;20233;-75
2022/03/31 10:49:59;;;;;;;42.27;18.03;;;;;;;-145.69;83.87;69916.25;5074332;28;20260;-75
2022/03/31 10:52:27;;;;;;;44.77;19.63;;;;;;;-145.69;79.35;69946.09;5074111;28;20566;-75
2022/03/31 10:55:06;;;;;;;47.33;18.57;;;;;;;-145.69;86.47;69874.47;5073944;28;20205;-75
2022/03/31 10:57:39;;;;;;;25.90;8.67;;;;;;;-145.69;80.71;69842.66;5054033;28;20201;-75
2022/03/31 11:00:08;;;;;;;24.30;9.30;;;;;;;-145.69;80.88;69932.16;5053916;28;20234;-75